Time;durP1;ratioP1;P1;durP2;ratioP2;P2;SDS_P1;SDS_P2;PMS_P1;PMS_P2;Temp;Humidity;BMP_temperature;BMP_pressure;BME280_temperature;BME280_humidity;BME280_pressure;Samples;Min_cycle;Max_cycle;Signal;HPM_P1;HPM_P2
2022/12/22 03:26:34;;;;;;;8.83;6.20;;;5.40;99.90;4.50;99405;;;;584188;246;24068;-80
2022/12/22 03:29:02;;;;;;;9.93;6.57;;;5.30;99.90;4.50;99411;;;;570417;251;24166;-77
2022/12/22 03:31:30;;;;;;;8.93;6.80;;;5.30;99.90;4.40;99409;;;;559646;252;24131;-77
2022/12/22 03:33:58;;;;;;;11.80;6.87;;;5.20;99.90;4.40;99407;;;;568167;251;24111;-76
2022/12/22 03:36:26;;;;;;;9.93;6.63;;;5.20;99.90;4.40;99417;;;;559590;252;24130;-72
2022/12/22 03:38:54;;;;;;;13.03;6.90;;;5.20;99.90;4.30;99413;;;;568263;251;24150;-73
2022/12/22 03:46:54;;;;;;;9.10;6.20;;;5.10;99.90;4.30;99395;;;;580553;246;24071;-71
2022/12/22 03:49:21;;;;;;;10.13;6.30;;;5.10;99.90;4.30;99404;;;;584780;245;24062;-70
2022/12/22 03:51:49;;;;;;;11.43;7.17;;;5.10;99.90;4.30;99409;;;;571292;251;24173;-76
2022/12/22 03:54:17;;;;;;;13.37;7.60;;;5.10;99.90;4.30;99404;;;;569067;252;24136;-72
2022/12/22 03:56:45;;;;;;;11.47;6.60;;;5.10;99.90;4.30;99406;;;;580006;247;24136;-73
2022/12/22 03:59:13;;;;;;;9.87;6.67;;;5.10;99.90;4.40;99390;;;;575468;246;24117;-78
2022/12/22 04:01:47;;;;;;;11.40;6.67;;;5.20;99.90;4.40;99392;;;;569182;247;24129;-76
2022/12/22 04:04:15;;;;;;;10.80;6.40;;;5.20;99.90;4.40;99387;;;;566209;251;24111;-74
2022/12/22 04:06:43;;;;;;;10.67;6.93;;;5.20;99.90;4.40;99386;;;;560130;252;24142;-71
2022/12/22 04:09:11;;;;;;;10.57;7.40;;;5.20;99.90;4.50;99393;;;;568562;249;24125;-71
2022/12/22 04:14:24;;;;;;;10.97;7.53;;;5.30;99.90;4.50;99394;;;;575050;246;24106;-74
2022/12/22 04:16:52;;;;;;;9.57;7.00;;;5.30;99.90;4.50;99392;;;;570137;251;24151;-74
2022/12/22 04:19:24;;;;;;;10.20;6.10;;;5.40;99.90;4.60;99392;;;;559540;252;24125;-75
2022/12/22 04:21:49;;;;;;;10.40;7.30;;;5.40;99.90;4.60;99396;;;;567356;251;24123;-71
2022/12/22 04:24:17;;;;;;;11.20;6.80;;;5.40;99.90;4.60;99399;;;;559426;252;24175;-71
2022/12/22 04:26:45;;;;;;;10.43;7.03;;;5.40;99.90;4.60;99395;;;;576588;247;24183;-73
2022/12/22 04:29:13;;;;;;;12.97;7.17;;;5.50;99.90;4.70;99392;;;;579112;246;24114;-72
2022/12/22 04:31:40;;;;;;;13.53;7.63;;;5.50;99.90;4.70;99413;;;;583329;245;24103;-75
2022/12/22 04:34:08;;;;;;;11.70;6.87;;;5.50;99.90;4.70;99397;;;;569846;251;24150;-71
2022/12/22 04:36:36;;;;;;;13.30;7.77;;;5.50;99.90;4.70;99388;;;;559229;252;24166;-72
2022/12/22 04:39:04;;;;;;;12.70;6.93;;;5.50;99.90;4.70;99415;;;;567783;251;24151;-71
2022/12/22 04:41:32;;;;;;;14.67;7.43;;;5.50;99.90;4.70;99407;;;;559041;252;24131;-71
2022/12/22 04:44:00;;;;;;;11.97;7.13;;;5.60;99.90;4.80;99394;;;;559017;251;24103;-74
2022/12/22 04:46:32;;;;;;;11.03;7.33;;;5.60;99.90;4.80;99389;;;;569792;251;24121;-71
2022/12/22 04:48:56;;;;;;;14.13;8.83;;;5.60;99.90;4.80;99385;;;;559170;252;24195;-72
2022/12/22 04:51:24;;;;;;;14.00;8.13;;;5.60;99.90;4.80;99385;;;;567758;251;24156;-71
2022/12/22 04:53:52;;;;;;;10.77;7.13;;;5.70;99.90;4.90;99398;;;;559060;252;24147;-71
2022/12/22 04:56:19;;;;;;;11.73;7.63;;;5.70;99.90;4.90;99391;;;;568120;250;24130;-71
2022/12/22 04:58:48;;;;;;;16.30;8.00;;;5.70;99.90;4.90;99389;;;;560177;252;24137;-71
2022/12/22 05:01:16;;;;;;;10.60;7.10;;;5.70;99.90;4.90;99387;;;;568620;251;24113;-71
2022/12/22 05:03:47;;;;;;;11.27;6.80;;;5.70;99.90;4.90;99388;;;;572889;249;25141;-73
2022/12/22 05:06:12;;;;;;;11.83;6.97;;;5.70;99.90;4.90;99395;;;;561925;251;24181;-72
2022/12/22 05:08:40;;;;;;;10.27;6.60;;;5.70;99.90;4.90;99396;;;;559576;252;24193;-71
2022/12/22 05:11:08;;;;;;;16.42;10.68;;;5.70;99.90;4.90;99397;;;;563279;251;35484;-74
2022/12/22 05:13:41;;;;;;;11.57;7.83;;;5.70;99.90;4.90;99385;;;;573773;249;24109;-74
2022/12/22 05:16:08;;;;;;;12.13;10.10;;;5.70;99.90;4.90;99401;;;;573105;250;24173;-70
2022/12/22 05:18:37;;;;;;;9.10;6.60;;;5.70;99.90;4.90;99393;;;;572607;251;24111;-79
2022/12/22 05:21:11;;;;;;;10.67;7.23;;;5.70;99.90;4.90;99390;;;;561991;251;24145;-79
2022/12/22 05:23:39;;;;;;;11.13;7.83;;;5.70;99.90;4.90;99394;;;;572834;251;24106;-77
2022/12/22 05:26:06;;;;;;;8.53;5.83;;;5.70;99.90;4.80;99386;;;;570267;251;24227;-73
2022/12/22 05:28:34;;;;;;;10.93;6.33;;;5.70;99.90;4.80;99386;;;;568129;252;24170;-79
2022/12/22 05:31:17;;;;;;;9.67;6.53;;;5.70;99.90;4.80;99390;;;;572634;251;24122;-74
2022/12/22 05:33:45;;;;;;;11.00;5.57;;;5.70;99.90;4.80;99385;;;;561998;251;24131;-80
2022/12/22 05:36:13;;;;;;;13.53;7.57;;;5.70;99.90;4.80;99377;;;;564767;250;24125;-79
2022/12/22 05:38:43;;;;;;;10.83;6.57;;;5.60;99.90;4.80;99370;;;;564305;250;24090;-77
2022/12/22 05:41:10;;;;;;;13.57;6.90;;;5.60;99.90;4.80;99367;;;;559630;250;24138;-77
2022/12/22 05:43:40;;;;;;;9.43;6.33;;;5.60;99.90;4.80;99364;;;;567913;251;24124;-74
2022/12/22 05:46:05;;;;;;;11.60;6.57;;;5.60;99.90;4.80;99363;;;;578476;246;24130;-75
2022/12/22 05:48:33;;;;;;;7.87;5.53;;;5.60;99.90;4.80;99372;;;;570345;251;24196;-73
2022/12/22 05:51:01;;;;;;;8.13;6.33;;;5.60;99.90;4.80;99369;;;;572725;249;24142;-73
2022/12/22 05:53:29;;;;;;;8.70;6.40;;;5.60;99.90;4.80;99374;;;;564198;251;24106;-73
2022/12/22 05:55:57;;;;;;;7.83;6.10;;;5.60;99.90;4.70;99369;;;;559050;252;24114;-71
2022/12/22 05:58:25;;;;;;;9.60;6.00;;;5.60;99.90;4.80;99370;;;;572239;250;24105;-72
2022/12/22 06:00:53;;;;;;;10.57;7.17;;;5.60;99.90;4.70;99373;;;;569852;250;24106;-71
2022/12/22 06:03:21;;;;;;;11.93;7.00;;;5.50;99.90;4.70;99367;;;;572403;249;24164;-73
2022/12/22 06:05:52;;;;;;;12.73;7.43;;;5.50;99.90;4.70;99379;;;;569879;251;24196;-77
2022/12/22 06:08:20;;;;;;;10.53;6.77;;;5.50;99.90;4.70;99377;;;;562590;249;24110;-76
2022/12/22 06:10:48;;;;;;;9.77;7.00;;;5.50;99.90;4.60;99373;;;;565644;250;24141;-71
2022/12/22 06:13:16;;;;;;;12.20;7.37;;;5.40;99.90;4.50;99365;;;;565360;250;24116;-72
2022/12/22 06:15:44;;;;;;;11.87;7.63;;;5.40;99.90;4.50;99368;;;;565309;250;24104;-71
2022/12/22 06:18:12;;;;;;;14.17;7.33;;;5.30;99.90;4.40;99371;;;;565086;250;24090;-72
2022/12/22 06:20:40;;;;;;;14.77;7.63;;;5.20;99.90;4.40;99374;;;;565054;250;24073;-72
2022/12/22 06:23:08;;;;;;;14.77;7.87;;;5.20;99.90;4.30;99370;;;;564743;250;24187;-72
2022/12/22 06:25:40;;;;;;;12.90;7.63;;;5.10;99.90;4.30;99378;;;;564495;250;24135;-73
2022/12/22 06:28:04;;;;;;;10.10;6.97;;;5.10;99.90;4.30;99374;;;;564356;250;24132;-76
2022/12/22 06:30:32;;;;;;;12.70;7.90;;;5.10;99.90;4.20;99362;;;;565341;250;24120;-73
2022/12/22 06:33:04;;;;;;;12.07;6.37;;;5.00;99.90;4.20;99371;;;;564985;250;24100;-79
2022/12/22 06:35:29;;;;;;;14.77;8.43;;;5.00;99.90;4.10;99368;;;;573961;249;24294;-78
2022/12/22 06:37:57;;;;;;;11.87;7.10;;;4.90;99.90;4.10;99373;;;;565232;250;24124;-78
2022/12/22 06:40:25;;;;;;;13.23;7.17;;;4.90;99.90;4.00;99373;;;;565093;250;24190;-78
2022/12/22 06:43:08;;;;;;;9.53;6.73;;;4.80;99.90;4.00;99371;;;;564951;250;24117;-71
2022/12/22 06:45:35;;;;;;;11.47;6.97;;;4.80;99.90;3.90;99382;;;;564505;250;24115;-69
2022/12/22 06:48:07;;;;;;;12.43;7.37;;;4.70;99.90;3.90;99374;;;;574085;246;24127;-71
2022/12/22 06:50:31;;;;;;;14.10;7.53;;;4.70;99.90;3.80;99371;;;;570044;251;24271;-72
2022/12/22 06:52:59;;;;;;;14.13;7.73;;;4.70;99.90;3.80;99369;;;;559435;252;24116;-72
2022/12/22 06:55:27;;;;;;;16.93;8.57;;;4.60;99.90;3.70;99362;;;;567989;251;24153;-72
2022/12/22 06:57:55;;;;;;;21.13;10.63;;;4.60;99.90;3.70;99359;;;;559424;252;24140;-73
2022/12/22 07:00:24;;;;;;;18.37;9.70;;;4.50;99.90;3.60;99361;;;;574795;246;24072;-72
2022/12/22 07:02:52;;;;;;;16.23;8.33;;;4.40;99.90;3.60;99355;;;;570201;251;24197;-71
2022/12/22 07:05:24;;;;;;;14.17;8.50;;;4.30;99.90;3.50;99357;;;;559447;252;24126;-73
2022/12/22 07:07:52;;;;;;;13.30;8.53;;;4.30;99.90;3.50;99353;;;;574319;247;24125;-75
2022/12/22 07:10:16;;;;;;;12.53;7.83;;;4.30;99.90;3.50;99348;;;;571974;246;24161;-71
2022/12/22 07:12:44;;;;;;;14.00;9.53;;;4.30;99.90;3.50;99348;;;;583639;246;24099;-71
2022/12/22 07:15:12;;;;;;;17.07;8.97;;;4.30;99.90;3.50;99347;;;;569895;251;24133;-73
2022/12/22 07:17:40;;;;;;;15.70;10.00;;;4.30;99.90;3.40;99350;;;;559127;252;24177;-75
2022/12/22 07:20:08;;;;;;;15.50;10.37;;;4.30;99.90;3.40;99340;;;;584338;244;24077;-72
2022/12/22 07:22:37;;;;;;;15.03;8.47;;;4.30;99.90;3.50;99332;;;;570261;246;24141;-73
2022/12/22 07:25:05;;;;;;;18.10;9.00;;;4.30;99.90;3.40;99336;;;;573043;246;24114;-72
2022/12/22 07:27:32;;;;;;;15.43;9.57;;;4.30;99.90;3.40;99326;;;;579877;246;24078;-75
2022/12/22 07:30:00;;;;;;;14.37;8.30;;;4.30;99.90;3.40;99328;;;;570467;246;24085;-73
2022/12/22 07:32:28;;;;;;;16.23;8.10;;;4.30;99.90;3.40;99326;;;;572298;246;25162;-71
2022/12/22 07:34:56;;;;;;;14.03;9.63;;;4.20;99.90;3.40;99331;;;;572144;246;24111;-75
2022/12/22 07:37:24;;;;;;;13.30;8.57;;;4.30;99.90;3.40;99326;;;;572221;246;24110;-75
2022/12/22 07:39:52;;;;;;;15.40;9.40;;;4.30;99.90;3.40;99323;;;;572073;246;24251;-79
2022/12/22 07:45:06;;;;;;;14.10;8.57;;;4.30;99.90;3.40;99329;;;;581244;246;24128;-74
2022/12/22 07:47:34;;;;;;;13.50;9.23;;;4.30;99.90;3.40;99328;;;;579015;246;24143;-79
2022/12/22 07:52:49;;;;;;;20.30;10.93;;;4.40;99.90;3.60;99326;;;;572769;246;24101;-79
2022/12/22 07:55:17;;;;;;;20.47;10.13;;;4.40;99.90;3.60;99325;;;;580998;246;24090;-73
2022/12/22 07:57:45;;;;;;;14.07;9.23;;;4.40;99.90;3.70;99313;;;;580934;246;24155;-71
2022/12/22 08:00:13;;;;;;;14.17;8.60;;;4.50;99.90;3.80;99309;;;;580901;245;24089;-72
2022/12/22 08:02:45;;;;;;;18.97;9.67;;;4.70;99.90;3.90;99311;;;;571802;246;24119;-74
2022/12/22 08:05:10;;;;;;;17.90;8.83;;;4.70;99.90;3.90;99308;;;;577139;246;24134;-74
2022/12/22 08:07:38;;;;;;;15.33;10.00;;;4.70;99.90;4.00;99306;;;;571611;246;24169;-73
2022/12/22 08:10:06;;;;;;;17.57;9.57;;;4.80;99.90;4.00;99298;;;;581226;246;24093;-71
2022/12/22 08:12:34;;;;;;;19.27;10.87;;;4.90;99.90;4.10;99297;;;;578967;246;24080;-76
2022/12/22 08:15:02;;;;;;;16.27;9.10;;;4.90;99.90;4.20;99297;;;;581164;246;24243;-72
2022/12/22 08:17:30;;;;;;;14.03;8.30;;;5.00;99.90;4.20;99299;;;;572656;246;24099;-71
2022/12/22 08:19:58;;;;;;;15.70;9.27;;;5.00;99.90;4.20;99289;;;;572371;246;24100;-75
2022/12/22 08:22:28;;;;;;;17.50;9.17;;;5.00;99.90;4.30;99294;;;;572735;246;24111;-79
2022/12/22 08:24:54;;;;;;;11.73;7.70;;;5.10;99.90;4.30;99300;;;;571861;246;24102;-72
2022/12/22 08:27:39;;;;;;;15.90;9.37;;;5.10;99.90;4.40;99292;;;;571954;246;24178;-72
2022/12/22 08:30:08;;;;;;;15.60;8.53;;;5.20;99.90;4.40;99294;;;;578666;246;24150;-71
2022/12/22 08:32:33;;;;;;;17.77;8.00;;;5.30;99.90;4.50;99286;;;;582571;245;24140;-72
2022/12/22 08:35:01;;;;;;;16.97;8.77;;;5.30;99.90;4.50;99286;;;;582338;245;24150;-71
2022/12/22 08:37:32;;;;;;;15.33;9.03;;;5.40;99.90;4.60;99290;;;;579761;246;24093;-70
2022/12/22 08:39:56;;;;;;;18.50;10.20;;;5.50;99.90;4.70;99286;;;;572333;246;24148;-71
2022/12/22 08:42:28;;;;;;;15.17;8.27;;;5.50;99.90;4.80;99281;;;;581216;246;24182;-76
2022/12/22 08:44:52;;;;;;;22.80;11.43;;;5.60;99.90;4.90;99285;;;;581322;246;24103;-73
2022/12/22 08:47:20;;;;;;;17.00;10.23;;;5.70;99.90;5.00;99280;;;;572953;246;24139;-76
2022/12/22 08:49:52;;;;;;;16.27;9.60;;;5.80;99.90;5.10;99267;;;;581655;245;24099;-73
2022/12/22 08:52:16;;;;;;;16.37;9.37;;;5.90;99.90;5.20;99281;;;;580933;246;24127;-74
2022/12/22 08:54:44;;;;;;;16.37;9.27;;;6.00;99.90;5.30;99276;;;;572355;246;24085;-75
2022/12/22 08:57:12;;;;;;;18.43;9.70;;;6.10;99.90;5.40;99274;;;;571872;246;24147;-72
2022/12/22 08:59:40;;;;;;;17.23;10.43;;;6.20;99.90;5.50;99275;;;;571712;246;24147;-70
2022/12/22 09:02:08;;;;;;;18.00;9.57;;;6.30;99.90;5.60;99274;;;;581153;246;24092;-73
2022/12/22 09:04:38;;;;;;;18.57;10.20;;;6.40;99.90;5.70;99266;;;;571782;246;24143;-70
2022/12/22 09:07:03;;;;;;;19.20;10.30;;;6.50;99.90;5.80;99273;;;;581557;245;24118;-72
2022/12/22 09:09:35;;;;;;;23.73;11.23;;;6.70;99.90;5.90;99273;;;;580671;242;24102;-72
2022/12/22 09:12:00;;;;;;;19.87;10.53;;;6.70;99.90;6.00;99267;;;;581038;245;24130;-72
2022/12/22 09:14:31;;;;;;;19.63;10.90;;;6.80;99.90;6.00;99260;;;;581425;246;24094;-73
2022/12/22 09:16:59;;;;;;;18.40;10.10;;;6.90;99.90;6.00;99262;;;;568641;246;24226;-72
2022/12/22 09:19:24;;;;;;;19.90;10.13;;;6.90;99.90;6.00;99256;;;;571760;246;24128;-72
2022/12/22 09:21:52;;;;;;;21.20;10.67;;;6.90;99.90;6.10;99255;;;;580806;245;24099;-73
2022/12/22 09:24:20;;;;;;;17.70;9.73;;;6.90;99.90;6.10;99254;;;;581137;246;24097;-74
2022/12/22 09:26:47;;;;;;;24.50;9.67;;;6.90;99.90;6.10;99247;;;;581553;245;24073;-78
2022/12/22 09:29:15;;;;;;;19.30;9.47;;;6.90;99.90;6.10;99251;;;;572318;246;24119;-78
2022/12/22 09:31:46;;;;;;;17.60;9.43;;;6.90;99.90;6.00;99255;;;;572091;246;24096;-72
2022/12/22 09:34:11;;;;;;;17.73;9.10;;;6.90;99.90;6.00;99253;;;;578876;246;24132;-72
2022/12/22 09:36:39;;;;;;;18.93;9.23;;;6.80;99.90;6.00;99253;;;;572186;246;24092;-77
2022/12/22 09:39:10;;;;;;;17.00;8.60;;;6.80;99.90;6.00;99251;;;;580932;244;24144;-77
2022/12/22 09:41:50;;;;;;;15.23;8.17;;;6.80;99.90;6.00;99241;;;;570481;246;24207;-78
2022/12/22 09:44:21;;;;;;;18.37;8.57;;;6.80;99.90;6.10;99247;;;;581930;245;24127;-80
2022/12/22 09:46:48;;;;;;;21.20;9.87;;;6.90;99.90;6.10;99236;;;;581545;246;24123;-81
2022/12/22 09:49:16;;;;;;;21.30;9.67;;;6.90;99.90;6.10;99237;;;;573047;246;24092;-75
2022/12/22 09:51:44;;;;;;;18.97;9.50;;;6.90;99.90;6.10;99231;;;;581760;245;24083;-77
2022/12/22 09:54:12;;;;;;;17.43;9.27;;;6.90;99.90;6.20;99230;;;;581666;245;24133;-79
2022/12/22 09:56:40;;;;;;;16.03;8.93;;;6.90;99.90;6.10;99227;;;;572674;246;24112;-76
2022/12/22 09:59:11;;;;;;;17.03;9.37;;;6.90;99.90;6.10;99218;;;;572615;246;24168;-78
2022/12/22 10:01:56;;;;;;;12.97;8.43;;;6.90;99.90;6.10;99221;;;;581610;243;24143;-74
2022/12/22 10:04:42;;;;;;;15.13;8.97;;;6.90;99.90;6.10;99223;;;;579478;246;24158;-79
2022/12/22 10:07:16;;;;;;;15.83;8.90;;;6.90;99.90;6.20;99219;;;;581030;243;24112;-77
2022/12/22 10:09:44;;;;;;;14.60;9.10;;;7.00;99.90;6.30;99212;;;;581062;246;24137;-79
2022/12/22 10:12:14;;;;;;;13.57;7.97;;;7.00;99.90;6.30;99213;;;;572214;246;24122;-77
2022/12/22 10:14:42;;;;;;;17.10;9.20;;;7.10;99.90;6.40;99214;;;;580464;246;24171;-77
2022/12/22 10:17:22;;;;;;;18.20;9.80;;;7.20;99.90;6.50;99212;;;;581292;246;24159;-74
2022/12/22 10:19:50;;;;;;;13.87;8.20;;;7.20;99.90;6.50;99215;;;;578921;246;24116;-75
2022/12/22 10:22:29;;;;;;;19.67;9.13;;;7.30;99.90;6.70;99217;;;;581077;246;24090;-77
2022/12/22 10:24:57;;;;;;;25.67;9.90;;;7.50;99.90;6.90;99211;;;;569301;246;24194;-72
2022/12/22 10:27:25;;;;;;;20.67;10.07;;;7.70;99.90;7.10;99205;;;;580588;246;24109;-71
2022/12/22 10:29:54;;;;;;;20.57;10.03;;;8.00;99.90;7.30;99210;;;;581312;245;24142;-72
2022/12/22 10:32:22;;;;;;;18.03;9.67;;;8.00;99.90;7.40;99208;;;;580600;246;24199;-71
2022/12/22 10:35:01;;;;;;;16.10;9.80;;;8.20;99.90;7.50;99201;;;;571493;246;24150;-71
2022/12/22 10:37:33;;;;;;;17.77;8.83;;;8.40;99.90;7.60;99201;;;;580001;246;24093;-75
2022/12/22 10:40:19;;;;;;;16.60;8.43;;;8.40;99.90;7.70;99205;;;;578476;246;24128;-72
2022/12/22 10:42:53;;;;;;;14.33;8.20;;;8.50;99.90;7.80;99197;;;;581236;246;24142;-72
2022/12/22 10:45:24;;;;;;;11.20;7.57;;;8.60;99.90;7.80;99188;;;;571539;246;24077;-72
2022/12/22 10:47:54;;;;;;;12.37;7.53;;;8.60;99.90;7.80;99180;;;;569386;246;24108;-73
2022/12/22 10:50:22;;;;;;;12.13;7.93;;;8.60;99.90;7.80;99168;;;;571577;246;24189;-72
2022/12/22 10:52:53;;;;;;;12.93;8.47;;;8.60;99.90;7.70;99159;;;;571143;246;24134;-74
2022/12/22 10:55:28;;;;;;;14.83;8.30;;;8.50;99.90;7.70;99166;;;;581891;245;24155;-76
2022/12/22 10:57:54;;;;;;;17.27;9.17;;;8.50;99.90;7.60;99163;;;;572474;246;24101;-78
2022/12/22 11:00:28;;;;;;;13.60;8.97;;;8.40;99.90;7.60;99162;;;;572740;246;24136;-80
2022/12/22 11:02:56;;;;;;;15.30;9.70;;;8.40;99.90;7.50;99163;;;;570279;246;24137;-78
2022/12/22 11:05:24;;;;;;;19.97;12.63;;;8.30;99.90;7.50;99177;;;;576248;245;35321;-70
2022/12/22 11:07:52;;;;;;;18.93;11.07;;;8.20;99.90;7.40;99166;;;;581200;242;24154;-72
2022/12/22 11:10:27;;;;;;;19.27;10.37;;;8.10;99.90;7.30;99164;;;;581314;244;24105;-72
2022/12/22 11:13:01;;;;;;;22.13;10.37;;;8.10;99.90;7.40;99158;;;;572269;246;24130;-78
2022/12/22 11:15:40;;;;;;;20.30;11.37;;;8.20;99.90;7.40;99150;;;;570953;246;24110;-79
2022/12/22 11:18:42;;;;;;;20.83;10.30;;;8.10;99.90;7.40;99148;;;;572320;246;24099;-80
2022/12/22 11:21:15;;;;;;;27.37;12.33;;;8.20;99.90;7.50;99135;;;;576030;246;26291;-73
2022/12/22 11:23:43;;;;;;;27.73;11.73;;;8.20;99.90;7.50;99136;;;;581489;246;24425;-73
2022/12/22 11:26:27;;;;;;;23.77;11.43;;;8.30;99.90;7.60;99134;;;;576243;246;24111;-73
2022/12/22 11:29:19;;;;;;;19.57;11.10;;;8.30;99.90;7.60;99126;;;;572586;246;24108;-72
2022/12/22 11:31:53;;;;;;;23.77;13.13;;;8.40;99.90;7.50;99124;;;;581059;245;24100;-73
2022/12/22 11:34:45;;;;;;;24.93;12.00;;;8.30;99.90;7.40;99121;;;;572557;246;24093;-70
2022/12/22 11:37:40;;;;;;;21.43;11.77;;;8.20;99.90;7.30;99113;;;;572706;246;24105;-80
2022/12/22 11:40:42;;;;;;;20.80;11.10;;;8.10;99.90;7.20;99113;;;;572639;246;24094;-79
2022/12/22 11:44:00;;;;;;;21.83;11.43;;;8.00;99.90;7.20;99110;;;;580922;246;24115;-77
2022/12/22 11:46:27;;;;;;;25.47;11.43;;;8.00;99.90;7.20;99108;;;;577439;246;24104;-71
2022/12/22 11:49:09;;;;;;;22.37;12.30;;;8.00;99.90;7.30;99102;;;;572081;246;24203;-71
2022/12/22 11:51:46;;;;;;;24.80;11.40;;;8.00;99.90;7.20;99107;;;;575865;246;24118;-72
2022/12/22 11:54:57;;;;;;;25.33;11.93;;;8.00;99.90;7.20;99090;;;;580617;246;24092;-71
2022/12/22 11:57:46;;;;;;;20.50;11.47;;;7.90;99.90;7.10;99092;;;;576765;246;24156;-71
2022/12/22 12:00:14;;;;;;;27.83;12.10;;;7.80;99.90;7.10;99088;;;;580530;246;24134;-78
2022/12/22 12:03:28;;;;;;;23.00;11.33;;;7.80;99.90;7.00;99072;;;;571070;246;24148;-80
2022/12/22 12:06:17;;;;;;;19.07;10.77;;;7.80;99.90;7.00;99078;;;;571892;246;24079;-76
2022/12/22 12:09:00;;;;;;;23.60;12.43;;;7.70;99.90;6.90;99077;;;;572824;246;24131;-72
2022/12/22 12:11:49;;;;;;;20.83;11.30;;;7.70;99.90;6.90;99080;;;;572847;246;24103;-71
2022/12/22 12:14:29;;;;;;;24.60;11.53;;;7.60;99.90;6.80;99071;;;;572749;246;24094;-76
2022/12/22 12:17:03;;;;;;;23.67;12.33;;;7.50;99.90;6.70;99065;;;;573008;246;24131;-72
2022/12/22 12:19:45;;;;;;;27.23;13.23;;;7.50;99.90;6.60;99064;;;;578836;245;24144;-70
2022/12/22 12:22:19;;;;;;;26.50;12.77;;;7.40;99.90;6.50;99059;;;;576392;246;24089;-71
2022/12/22 12:25:02;;;;;;;27.97;12.60;;;7.30;99.90;6.50;99057;;;;571585;246;24113;-71
2022/12/22 12:28:00;;;;;;;28.53;12.93;;;7.20;99.90;6.40;99058;;;;572317;246;24086;-70
2022/12/22 12:30:28;;;;;;;25.33;12.93;;;7.20;99.90;6.40;99049;;;;575074;246;24097;-73
2022/12/22 12:32:55;;;;;;;25.70;13.27;;;7.10;99.90;6.30;99044;;;;581835;246;24156;-71
2022/12/22 12:35:51;;;;;;;25.07;11.97;;;7.10;99.90;6.30;99035;;;;582120;245;24084;-73
2022/12/22 12:38:16;;;;;;;22.00;12.30;;;7.00;99.90;6.20;99029;;;;576070;246;24141;-75
2022/12/22 12:41:02;;;;;;;30.03;12.80;;;7.00;99.90;6.10;99032;;;;569545;246;24153;-73
2022/12/22 12:43:30;;;;;;;23.47;12.70;;;6.90;99.90;6.10;99029;;;;581093;246;25123;-73
2022/12/22 12:45:58;;;;;;;25.73;11.30;;;6.80;99.90;6.00;99032;;;;580905;246;24099;-73
2022/12/22 12:48:26;;;;;;;27.20;11.87;;;6.80;99.90;5.90;99023;;;;580847;246;24109;-72
2022/12/22 12:50:54;;;;;;;24.57;12.37;;;6.60;99.90;5.90;99030;;;;575586;246;24106;-74
2022/12/22 12:53:25;;;;;;;25.20;12.07;;;6.60;99.90;5.80;99027;;;;580839;246;24077;-76
2022/12/22 12:55:55;;;;;;;29.17;12.90;;;6.60;99.90;5.70;99027;;;;581149;245;24082;-78
2022/12/22 12:58:39;;;;;;;27.67;13.47;;;6.50;99.90;5.70;99026;;;;580989;246;24095;-72
2022/12/22 13:01:18;;;;;;;27.23;12.20;;;6.50;99.90;5.60;99013;;;;575995;246;24101;-77
2022/12/22 13:03:46;;;;;;;29.83;13.13;;;6.40;99.90;5.60;99013;;;;571261;246;24078;-77
2022/12/22 13:06:55;;;;;;;22.33;13.50;;;6.40;99.90;5.60;99023;;;;581244;246;24085;-81
2022/12/22 13:09:22;;;;;;;34.87;14.90;;;6.30;99.90;5.50;99020;;;;575901;245;24094;-72
2022/12/22 13:11:50;;;;;;;29.97;14.20;;;6.30;99.90;5.50;98997;;;;572291;246;24094;-75
2022/12/22 13:14:55;;;;;;;33.90;12.80;;;6.30;99.90;5.50;99005;;;;581106;246;24104;-78
2022/12/22 13:17:41;;;;;;;28.23;13.23;;;6.30;99.90;5.40;98995;;;;570166;246;24138;-72
2022/12/22 13:20:15;;;;;;;30.40;14.60;;;6.20;99.90;5.40;98990;;;;573033;246;25134;-72
2022/12/22 13:22:42;;;;;;;32.40;14.47;;;6.10;99.90;5.40;98991;;;;581839;246;24107;-72
2022/12/22 13:25:13;;;;;;;30.73;15.63;;;6.10;99.90;5.30;98998;;;;579428;246;24171;-77
2022/12/22 13:27:41;;;;;;;32.53;15.23;;;6.00;99.90;5.20;98994;;;;571819;246;24092;-77
2022/12/22 13:30:12;;;;;;;34.27;14.87;;;6.00;99.90;5.20;99001;;;;570123;246;24117;-74
2022/12/22 13:32:41;;;;;;;29.20;12.43;;;5.90;99.90;5.20;98983;;;;571918;246;24123;-71
2022/12/22 13:35:12;;;;;;;41.20;15.70;;;5.90;99.90;5.10;98987;;;;581868;246;25167;-70
2022/12/22 13:37:39;;;;;;;33.60;16.07;;;5.90;99.90;5.10;98981;;;;582101;245;24096;-72
2022/12/22 13:40:10;;;;;;;37.03;16.47;;;5.90;99.90;5.10;98982;;;;582176;245;24074;-72
2022/12/22 13:42:56;;;;;;;36.70;15.70;;;5.80;99.90;5.00;98987;;;;576194;246;24162;-74
2022/12/22 13:45:39;;;;;;;35.83;14.83;;;5.80;99.90;5.00;98989;;;;581498;245;24092;-71
2022/12/22 13:48:15;;;;;;;40.80;15.67;;;5.80;99.90;5.00;98991;;;;572654;246;24109;-72
2022/12/22 13:50:52;;;;;;;42.93;18.03;;;5.80;99.90;5.00;98983;;;;581186;246;24098;-72
2022/12/22 13:53:23;;;;;;;40.50;17.50;;;5.80;99.90;5.00;98989;;;;581251;246;24102;-71
2022/12/22 13:55:55;;;;;;;43.87;17.87;;;5.80;99.90;5.00;98977;;;;570608;246;24111;-71
2022/12/22 13:58:31;;;;;;;43.07;17.93;;;5.80;99.90;5.00;98979;;;;571007;246;24107;-78
2022/12/22 14:01:11;;;;;;;26.33;11.63;;;5.70;99.90;5.00;98964;;;;581302;246;24101;-72
2022/12/22 14:03:39;;;;;;;41.57;17.33;;;5.80;99.90;4.90;98958;;;;575615;246;24099;-71
2022/12/22 14:06:25;;;;;;;40.97;16.93;;;5.70;99.90;4.90;98961;;;;581420;246;24127;-75
2022/12/22 14:08:56;;;;;;;40.57;15.33;;;5.70;99.90;4.90;98952;;;;572352;246;24099;-71
2022/12/22 14:11:21;;;;;;;40.50;18.37;;;5.70;99.90;4.90;98946;;;;572327;246;24144;-72
2022/12/22 14:13:49;;;;;;;29.60;13.63;;;5.70;99.90;4.90;98952;;;;581369;246;24129;-72
2022/12/22 14:16:18;;;;;;;40.33;16.27;;;5.70;99.90;4.90;98954;;;;581281;246;24166;-74
2022/12/22 14:18:52;;;;;;;41.83;15.67;;;5.70;99.90;4.90;98957;;;;581306;246;24131;-73
2022/12/22 14:21:17;;;;;;;32.63;15.67;;;5.70;99.90;4.90;98949;;;;572394;246;24140;-71
2022/12/22 14:23:44;;;;;;;34.40;15.83;;;5.70;99.90;4.90;98956;;;;581363;246;24080;-70
2022/12/22 14:26:12;;;;;;;34.93;17.70;;;5.60;99.90;4.90;98946;;;;571253;246;24207;-74
2022/12/22 14:28:49;;;;;;;35.60;15.33;;;5.60;99.90;4.80;98941;;;;571543;245;25161;-76
2022/12/22 14:31:15;;;;;;;32.73;15.60;;;5.60;99.90;4.80;98939;;;;583709;246;24096;-74
2022/12/22 14:33:40;;;;;;;37.67;16.40;;;5.60;99.90;4.80;98944;;;;573911;246;24190;-71
2022/12/22 14:36:16;;;;;;;34.30;15.00;;;5.60;99.90;4.80;98951;;;;582570;246;24088;-72
2022/12/22 14:38:46;;;;;;;37.13;16.27;;;5.60;99.90;4.80;98938;;;;577057;246;24085;-72
2022/12/22 14:41:43;;;;;;;33.87;15.70;;;5.60;99.90;4.80;98935;;;;572367;246;24105;-71
2022/12/22 14:44:22;;;;;;;30.40;15.83;;;5.60;99.90;4.80;98939;;;;577082;249;24180;-75
2022/12/22 14:47:16;;;;;;;31.10;15.50;;;5.60;99.90;4.80;98937;;;;572539;246;24163;-73
2022/12/22 14:49:51;;;;;;;27.90;14.23;;;5.60;99.90;4.80;98945;;;;576465;246;24106;-73
2022/12/22 14:52:38;;;;;;;31.97;14.93;;;5.60;99.90;4.80;98936;;;;570547;246;24126;-72
2022/12/22 14:55:09;;;;;;;27.13;14.47;;;5.60;99.90;4.90;98931;;;;580984;246;24128;-74
2022/12/22 14:57:43;;;;;;;30.37;15.50;;;5.60;99.90;4.90;98930;;;;572548;246;24096;-77
2022/12/22 15:00:23;;;;;;;26.67;12.60;;;5.60;99.90;4.90;98930;;;;572318;246;24097;-72
2022/12/22 15:02:50;;;;;;;41.08;23.42;;;5.60;99.90;4.90;98922;;;;570922;246;35369;-72
2022/12/22 15:05:27;;;;;;;47.40;27.23;;;5.60;99.90;4.80;98924;;;;576770;246;35459;-71
2022/12/22 15:07:55;;;;;;;41.77;19.67;;;5.60;99.90;4.80;98921;;;;572338;246;24117;-73
2022/12/22 15:10:23;;;;;;;33.90;16.63;;;5.60;99.90;4.80;98917;;;;581617;246;24109;-73
2022/12/22 15:12:51;;;;;;;28.83;15.47;;;5.60;99.90;4.80;98926;;;;581356;245;24151;-74
2022/12/22 15:15:19;;;;;;;29.47;15.87;;;5.60;99.90;4.80;98933;;;;582588;246;24103;-75
2022/12/22 15:17:47;;;;;;;30.57;15.07;;;5.60;99.90;4.80;98929;;;;582749;246;24147;-73
2022/12/22 15:20:16;;;;;;;24.97;14.23;;;5.50;99.90;4.80;98919;;;;582315;246;24101;-80
2022/12/22 15:22:43;;;;;;;31.17;14.97;;;5.60;99.90;4.80;98930;;;;571338;246;24089;-72